Time;durP1;ratioP1;P1;durP2;ratioP2;P2;SDS_P1;SDS_P2;PMS_P1;PMS_P2;Temp;Humidity;BMP_temperature;BMP_pressure;BME280_temperature;BME280_humidity;BME280_pressure;Samples;Min_cycle;Max_cycle;Signal;HPM_P1;HPM_P2
2023/05/03 00:01:32;;;;;;;1.92;1.83;;;;;;;5.04;78.92;103021.97;6099683;23;20025;-79
2023/05/03 00:03:59;;;;;;;3.42;2.05;;;;;;;5.01;79.28;103012.84;6099761;23;20019;-79
2023/05/03 00:06:25;;;;;;;2.42;2.22;;;;;;;4.96;79.55;103013.13;6074020;23;20022;-79
2023/05/03 00:08:52;;;;;;;3.22;2.50;;;;;;;4.94;79.38;103004.03;6099798;23;20019;-79
2023/05/03 00:11:20;;;;;;;3.13;2.10;;;;;;;4.92;80.00;103003.59;6099714;23;20019;-79
2023/05/03 00:13:46;;;;;;;6.38;2.55;;;;;;;4.90;80.00;103017.13;6100055;23;20019;-80
2023/05/03 00:16:13;;;;;;;4.50;2.20;;;;;;;4.85;80.15;103014.75;6099422;23;20023;-80
2023/05/03 00:18:39;;;;;;;5.25;2.42;;;;;;;4.81;80.42;103010.50;6100457;23;20345;-79
2023/05/03 00:21:06;;;;;;;2.63;2.42;;;;;;;4.76;80.41;103006.28;6074151;23;20437;-80
2023/05/03 00:23:33;;;;;;;2.75;1.98;;;;;;;4.77;80.84;103010.47;6073395;23;20026;-79
2023/05/03 00:25:59;;;;;;;3.47;2.50;;;;;;;4.75;81.13;103004.75;6099737;23;20471;-80
2023/05/03 00:28:26;;;;;;;2.28;2.03;;;;;;;4.71;80.84;103005.78;6099729;23;20019;-80
2023/05/03 00:30:52;;;;;;;4.65;1.98;;;;;;;4.67;80.58;103011.75;6074169;23;20026;-79
2023/05/03 00:33:20;;;;;;;7.53;2.25;;;;;;;4.63;80.89;103018.06;6073128;23;20029;-79
2023/05/03 00:35:47;;;;;;;3.03;2.28;;;;;;;4.57;80.34;103014.16;6050218;23;20083;-80
2023/05/03 00:38:14;;;;;;;2.30;2.10;;;;;;;4.50;80.22;103017.38;6098438;23;20046;-80
2023/05/03 00:40:40;;;;;;;2.38;2.20;;;;;;;4.43;80.13;103016.44;6073962;23;20019;-80
2023/05/03 00:43:10;;;;;;;2.25;1.75;;;;;;;4.42;80.71;103017.56;6073686;23;20019;-80
2023/05/03 00:45:37;;;;;;;2.42;1.80;;;;;;;4.35;80.64;103005.75;6099864;23;20067;-79
2023/05/03 00:48:03;;;;;;;6.10;2.22;;;;;;;4.32;81.33;103008.31;6099874;23;20442;-80
2023/05/03 00:50:30;;;;;;;3.33;2.28;;;;;;;4.27;81.44;103001.41;6099594;23;20019;-80
2023/05/03 00:52:57;;;;;;;2.08;1.98;;;;;;;4.26;81.67;103009.66;6098945;23;20023;-80
2023/05/03 00:55:26;;;;;;;3.80;2.42;;;;;;;4.24;82.12;103015.28;6099698;23;20023;-79
2023/05/03 00:57:52;;;;;;;4.68;2.33;;;;;;;4.20;81.75;103005.75;6073712;23;20023;-79
2023/05/03 01:00:19;;;;;;;6.65;2.15;;;;;;;4.16;81.70;103007.53;6072808;23;20023;-79
2023/05/03 01:02:45;;;;;;;6.00;2.08;;;;;;;4.15;82.14;103006.75;6099832;23;20487;-79
2023/05/03 01:05:12;;;;;;;2.47;2.28;;;;;;;4.07;81.96;103010.31;6099028;23;20019;-80
2023/05/03 01:08:00;;;;;;;2.85;2.35;;;;;;;4.05;82.14;103011.75;6099461;23;20019;-80
2023/05/03 01:10:41;;;;;;;5.93;2.65;;;;;;;4.04;82.05;103016.28;6099397;23;20026;-79
2023/05/03 01:13:20;;;;;;;2.10;2.00;;;;;;;4.01;82.90;103009.03;6073844;23;20022;-80
2023/05/03 01:16:07;;;;;;;2.67;2.47;;;;;;;3.95;82.39;103013.81;6099912;23;20098;-80
2023/05/03 01:18:38;;;;;;;5.63;2.03;;;;;;;3.93;82.71;103017.91;6099385;23;20162;-80
2023/05/03 01:21:07;;;;;;;5.07;2.30;;;;;;;3.90;82.67;103014.06;6098627;23;20019;-80
2023/05/03 01:24:03;;;;;;;3.55;2.08;;;;;;;3.90;82.29;103005.41;6100039;23;20025;-80
2023/05/03 01:26:29;;;;;;;3.95;2.20;;;;;;;3.85;82.87;103013.53;6100616;23;20060;-79
2023/05/03 01:28:56;;;;;;;4.28;2.38;;;;;;;3.81;83.17;103007.41;6074908;23;20037;-79
2023/05/03 01:31:41;;;;;;;3.45;2.33;;;;;;;3.78;83.63;103013.34;6100333;23;20055;-80
2023/05/03 01:34:20;;;;;;;2.67;2.45;;;;;;;3.75;83.92;103014.03;6100590;23;20026;-79
2023/05/03 01:36:48;;;;;;;5.20;2.25;;;;;;;3.69;84.49;103016.91;6100312;23;20023;-80
2023/05/03 01:39:27;;;;;;;2.28;2.08;;;;;;;3.67;84.33;103010.44;6099902;23;20015;-80
2023/05/03 01:41:56;;;;;;;2.08;1.98;;;;;;;3.64;84.81;103008.47;6101000;23;20076;-80
2023/05/03 01:44:24;;;;;;;2.95;2.50;;;;;;;3.61;84.59;103003.88;6074639;23;20019;-80
2023/05/03 01:46:51;;;;;;;3.45;2.42;;;;;;;3.54;84.81;102998.44;6100927;23;20023;-79
2023/05/03 01:49:17;;;;;;;3.13;2.55;;;;;;;3.54;85.08;103001.06;6100016;23;20018;-80
2023/05/03 01:51:43;;;;;;;5.50;2.53;;;;;;;3.50;85.14;103006.25;6100397;23;20026;-80
2023/05/03 01:54:10;;;;;;;4.25;2.45;;;;;;;3.50;85.26;103002.84;6074633;23;20026;-79
2023/05/03 01:56:37;;;;;;;7.78;2.67;;;;;;;3.48;85.75;103005.03;6075010;23;20445;-80
2023/05/03 01:59:04;;;;;;;6.20;2.60;;;;;;;3.46;85.57;102999.34;6074691;23;20046;-80
2023/05/03 02:01:30;;;;;;;3.70;2.47;;;;;;;3.45;85.60;102998.59;6069457;23;20108;-80
2023/05/03 02:03:57;;;;;;;2.92;2.25;;;;;;;3.43;85.46;102997.38;6071728;23;20335;-79
2023/05/03 02:06:24;;;;;;;3.92;2.33;;;;;;;3.41;85.36;102999.59;6069079;23;20063;-80
2023/05/03 02:08:52;;;;;;;2.67;2.47;;;;;;;3.38;85.64;102998.38;6071747;23;20020;-80
2023/05/03 02:11:20;;;;;;;3.90;2.20;;;;;;;3.38;85.83;103008.16;6071141;23;20042;-80
2023/05/03 02:13:51;;;;;;;3.72;2.70;;;;;;;3.32;85.44;103000.47;6069932;23;20525;-80
2023/05/03 02:16:18;;;;;;;3.15;2.67;;;;;;;3.24;85.46;102998.75;6071147;23;20102;-80
2023/05/03 02:18:45;;;;;;;3.85;2.13;;;;;;;3.22;85.65;102992.28;6070265;23;20472;-79
2023/05/03 02:21:12;;;;;;;2.28;2.08;;;;;;;3.22;85.81;102992.28;6068826;23;20411;-79
2023/05/03 02:23:39;;;;;;;2.60;2.28;;;;;;;3.16;85.92;102983.88;6071718;23;20047;-79
2023/05/03 02:26:06;;;;;;;4.18;2.40;;;;;;;3.11;85.55;102981.47;6071296;23;20020;-79
2023/05/03 02:28:33;;;;;;;2.47;2.28;;;;;;;3.12;85.71;102982.25;6093779;23;20450;-80
2023/05/03 02:31:01;;;;;;;6.35;2.22;;;;;;;3.12;85.82;102979.63;6069460;23;20030;-79
2023/05/03 02:33:28;;;;;;;3.15;2.85;;;;;;;3.11;85.93;102976.22;6070852;23;20016;-79
2023/05/03 02:35:55;;;;;;;3.40;2.30;;;;;;;3.07;85.97;102972.72;6069806;23;20027;-80
2023/05/03 02:38:22;;;;;;;2.67;2.40;;;;;;;3.05;86.02;102969.66;6071388;23;20458;-80
2023/05/03 02:40:49;;;;;;;3.72;2.30;;;;;;;3.03;86.13;102963.94;6069641;23;20030;-79
2023/05/03 02:43:16;;;;;;;3.17;2.78;;;;;;;3.00;86.11;102964.63;6070833;23;20054;-79
2023/05/03 02:45:43;;;;;;;4.22;2.05;;;;;;;2.98;86.08;102962.31;6069894;23;20023;-80
2023/05/03 02:48:11;;;;;;;2.95;2.35;;;;;;;2.97;86.10;102962.66;6068462;23;20015;-80
2023/05/03 02:50:38;;;;;;;2.80;2.28;;;;;;;2.95;85.96;102957.72;6071677;23;20015;-80
2023/05/03 02:53:04;;;;;;;2.40;2.20;;;;;;;2.93;86.35;102954.66;6069221;23;20024;-80
2023/05/03 02:55:32;;;;;;;4.10;2.40;;;;;;;2.92;85.85;102954.97;6069317;23;20027;-80
2023/05/03 02:57:59;;;;;;;3.90;2.47;;;;;;;2.89;86.56;102953.78;6069242;23;20068;-79
2023/05/03 03:00:26;;;;;;;2.45;2.20;;;;;;;2.87;86.33;102957.84;6071577;23;20050;-79
2023/05/03 03:02:53;;;;;;;3.65;2.28;;;;;;;2.83;86.42;102957.72;6050674;23;20022;-79
2023/05/03 03:05:20;;;;;;;2.45;2.25;;;;;;;2.81;86.17;102959.94;6073817;23;20034;-80
2023/05/03 03:07:49;;;;;;;4.47;2.60;;;;;;;2.77;85.95;102963.56;6050949;23;20416;-80
2023/05/03 03:10:16;;;;;;;4.38;2.35;;;;;;;2.73;85.61;102976.63;6073859;23;20019;-80
2023/05/03 03:12:43;;;;;;;10.10;2.22;;;;;;;2.67;85.83;102967.41;6100370;23;20018;-79
2023/05/03 03:15:17;;;;;;;4.82;2.20;;;;;;;2.62;85.89;102975.53;6073607;23;20425;-80
2023/05/03 03:17:44;;;;;;;4.10;2.70;;;;;;;2.60;85.94;102975.88;6074075;23;20461;-80
2023/05/03 03:20:11;;;;;;;2.80;2.28;;;;;;;2.57;86.13;102981.78;6099657;23;20023;-80
2023/05/03 03:22:42;;;;;;;2.22;2.13;;;;;;;2.54;85.88;102973.78;6074803;23;20046;-79
2023/05/03 03:25:09;;;;;;;2.50;2.30;;;;;;;2.50;85.76;102975.53;6049883;23;20469;-79
2023/05/03 03:27:37;;;;;;;6.07;2.70;;;;;;;2.47;85.78;102984.06;6074521;23;20079;-79
2023/05/03 03:30:07;;;;;;;2.60;2.40;;;;;;;2.40;85.57;102978.63;6073859;23;20038;-79
2023/05/03 03:32:37;;;;;;;2.45;2.25;;;;;;;2.35;85.21;102974.34;6073716;23;20023;-79
2023/05/03 03:35:09;;;;;;;2.53;2.37;;;;;;;2.32;85.73;102975.00;6074049;23;20025;-79
2023/05/03 03:37:37;;;;;;;3.33;2.40;;;;;;;2.32;86.16;102973.13;6050662;23;20449;-79
2023/05/03 03:40:06;;;;;;;2.85;2.20;;;;;;;2.31;86.02;102970.84;6073792;23;20115;-79
2023/05/03 03:42:34;;;;;;;2.38;2.20;;;;;;;2.30;86.30;102977.97;6074041;23;20019;-79
2023/05/03 03:45:03;;;;;;;2.42;2.22;;;;;;;2.28;86.23;102977.50;6050513;23;20493;-79
2023/05/03 03:47:30;;;;;;;2.30;2.10;;;;;;;2.27;85.67;102977.84;6049492;23;20018;-79
2023/05/03 03:49:58;;;;;;;3.45;2.60;;;;;;;2.24;86.10;102975.88;6074628;23;20394;-80
2023/05/03 03:52:27;;;;;;;3.10;2.00;;;;;;;2.21;86.11;102982.53;6050647;23;20019;-79
2023/05/03 03:54:54;;;;;;;3.03;2.30;;;;;;;2.13;86.68;102993.16;6050591;23;20027;-78
2023/05/03 03:57:20;;;;;;;3.70;2.40;;;;;;;2.11;87.09;102995.34;6074300;23;20050;-78
2023/05/03 03:59:47;;;;;;;4.32;2.55;;;;;;;2.10;87.64;102996.44;6098634;23;20499;-79
2023/05/03 04:02:14;;;;;;;5.20;2.47;;;;;;;2.10;87.58;102991.16;6068139;23;20084;-80
2023/05/03 04:04:41;;;;;;;3.15;2.50;;;;;;;2.08;87.56;103002.00;6069526;23;20051;-80
2023/05/03 04:07:08;;;;;;;4.82;2.80;;;;;;;2.08;87.49;103001.25;6068688;23;20016;-79
2023/05/03 04:09:35;;;;;;;2.63;2.42;;;;;;;2.07;87.49;102997.06;6093254;23;20015;-79
2023/05/03 04:12:02;;;;;;;3.35;2.58;;;;;;;2.07;87.57;102987.34;6068792;23;20240;-79
2023/05/03 04:14:28;;;;;;;6.13;2.58;;;;;;;2.04;87.67;102987.22;6045100;23;20443;-79
2023/05/03 04:16:55;;;;;;;5.55;2.83;;;;;;;2.06;87.77;102985.03;6068811;23;20462;-80
2023/05/03 04:19:24;;;;;;;5.85;2.60;;;;;;;2.08;87.53;102994.13;6069119;23;20019;-79
2023/05/03 04:21:51;;;;;;;2.42;2.22;;;;;;;2.06;87.80;102996.31;6069299;23;20458;-80
2023/05/03 04:24:20;;;;;;;3.47;2.50;;;;;;;2.09;88.23;103005.41;6068460;23;20023;-80
2023/05/03 04:26:47;;;;;;;6.70;3.17;;;;;;;2.08;88.19;103002.00;6069224;23;20029;-79
2023/05/03 04:29:20;;;;;;;10.55;2.97;;;;;;;2.09;88.27;103011.41;6069055;23;20083;-80
2023/05/03 04:31:47;;;;;;;2.45;2.25;;;;;;;2.11;88.39;103014.50;6069213;23;20023;-79
2023/05/03 04:34:15;;;;;;;2.95;2.75;;;;;;;2.14;88.49;103023.59;6068465;23;20023;-79
2023/05/03 04:36:46;;;;;;;6.53;2.70;;;;;;;2.16;88.58;103022.16;6045978;23;20079;-79
2023/05/03 04:39:14;;;;;;;2.17;2.08;;;;;;;2.22;88.27;103027.97;6068420;23;20056;-79
2023/05/03 04:41:41;;;;;;;4.47;2.80;;;;;;;2.27;88.30;103030.41;6069472;23;20446;-80
2023/05/03 04:44:08;;;;;;;6.63;2.78;;;;;;;2.30;88.30;103033.16;6068338;23;20028;-79
2023/05/03 04:46:35;;;;;;;4.30;2.63;;;;;;;2.34;87.86;103038.53;6070730;23;20026;-80
2023/05/03 04:49:02;;;;;;;2.60;2.40;;;;;;;2.35;87.68;103042.69;6068978;23;20020;-80
2023/05/03 04:51:28;;;;;;;4.68;2.42;;;;;;;2.41;88.17;103051.88;6068603;23;20450;-80
2023/05/03 04:54:00;;;;;;;3.63;2.65;;;;;;;2.47;87.83;103045.31;6068728;23;20023;-80
2023/05/03 04:56:28;;;;;;;6.25;2.92;;;;;;;2.53;87.32;103053.75;6044850;23;20023;-80
2023/05/03 04:59:04;;;;;;;8.10;3.13;;;;;;;2.57;86.93;103049.38;6069198;23;20016;-80
2023/05/03 05:01:31;;;;;;;4.68;2.75;;;;;;;2.63;87.27;103043.56;6070048;23;20027;-80
2023/05/03 05:04:01;;;;;;;6.32;3.58;;;;;;;2.76;86.97;103043.59;6070062;23;20454;-80
2023/05/03 05:06:35;;;;;;;3.35;2.97;;;;;;;2.85;87.09;103039.72;6070645;23;20019;-80
2023/05/03 05:09:02;;;;;;;6.03;3.10;;;;;;;3.63;87.41;103041.94;6070322;23;20438;-80
2023/05/03 05:11:28;;;;;;;3.22;2.92;;;;;;;6.47;80.85;103046.44;6069843;23;20027;-80
2023/05/03 05:13:57;;;;;;;3.28;2.97;;;;;;;8.82;71.19;103049.72;6069533;23;20478;-80
2023/05/03 05:16:23;;;;;;;5.85;3.05;;;;;;;10.46;63.78;103054.28;6071737;23;20029;-80
2023/05/03 05:18:52;;;;;;;4.30;3.00;;;;;;;11.66;59.24;103049.66;6072340;23;20020;-80
2023/05/03 05:21:22;;;;;;;6.50;2.90;;;;;;;12.74;55.80;103053.00;6069885;23;20078;-80
2023/05/03 05:23:49;;;;;;;4.72;2.88;;;;;;;13.63;52.80;103066.03;6070562;23;20552;-80
2023/05/03 05:26:15;;;;;;;3.70;2.92;;;;;;;14.31;49.34;103061.13;6071592;23;20037;-79
2023/05/03 05:28:42;;;;;;;2.90;2.63;;;;;;;14.90;47.64;103057.00;6069660;23;20046;-79
2023/05/03 05:31:08;;;;;;;2.80;2.55;;;;;;;15.39;46.55;103063.28;6071580;23;20397;-79
2023/05/03 05:33:35;;;;;;;11.73;2.50;;;;;;;15.80;45.28;103065.44;6070356;23;20033;-79
2023/05/03 05:36:03;;;;;;;5.78;2.53;;;;;;;16.28;43.36;103071.97;6069896;23;20469;-78
2023/05/03 05:38:31;;;;;;;3.45;2.33;;;;;;;16.81;41.89;103070.56;6070398;23;20015;-79
2023/05/03 05:40:59;;;;;;;9.25;2.08;;;;;;;17.14;40.86;103073.13;6068995;23;20022;-79
2023/05/03 05:43:25;;;;;;;7.57;2.60;;;;;;;17.43;41.61;103065.69;6069706;23;20106;-79
2023/05/03 05:45:53;;;;;;;4.38;2.03;;;;;;;17.37;40.35;103062.03;6070633;23;20104;-80
2023/05/03 05:48:21;;;;;;;3.83;2.13;;;;;;;17.51;39.39;103069.69;6046908;23;20023;-80
2023/05/03 05:50:49;;;;;;;4.78;2.00;;;;;;;17.50;39.21;103068.19;6070761;23;20019;-79
2023/05/03 05:53:16;;;;;;;3.63;2.10;;;;;;;17.54;39.15;103068.06;6072117;23;20038;-80
2023/05/03 05:55:50;;;;;;;3.03;1.98;;;;;;;17.61;39.87;103063.19;6049317;23;20026;-80
2023/05/03 05:58:17;;;;;;;2.75;2.13;;;;;;;17.35;39.43;103064.41;6070408;23;20079;-80
2023/05/03 06:00:48;;;;;;;2.50;1.73;;;;;;;16.85;39.28;103068.53;6070574;23;20114;-80
2023/05/03 06:03:16;;;;;;;1.98;1.80;;;;;;;16.34;39.42;103073.72;6070898;23;20060;-80
2023/05/03 06:05:44;;;;;;;2.95;2.08;;;;;;;15.70;40.90;103074.50;6071158;23;20044;-80
2023/05/03 06:08:10;;;;;;;3.38;1.80;;;;;;;15.17;41.98;103070.28;6070526;23;20023;-78
2023/05/03 06:10:37;;;;;;;2.78;2.17;;;;;;;15.12;41.96;103074.19;6070740;23;20403;-82
2023/05/03 06:13:04;;;;;;;2.30;2.10;;;;;;;14.86;42.57;103065.13;6070230;23;20421;-80
2023/05/03 06:15:32;;;;;;;4.68;2.20;;;;;;;14.36;44.02;103073.31;6070901;23;20019;-80
2023/05/03 06:17:58;;;;;;;5.95;2.10;;;;;;;14.11;44.10;103068.34;6070592;23;20417;-85
2023/05/03 06:20:25;;;;;;;8.02;2.03;;;;;;;13.69;45.70;103073.19;6070962;23;20067;-81
2023/05/03 06:22:53;;;;;;;1.92;1.83;;;;;;;13.50;46.19;103073.88;6071178;23;20023;-82
2023/05/03 06:25:20;;;;;;;3.83;1.90;;;;;;;13.36;46.53;103074.03;6046689;23;20020;-81
2023/05/03 06:27:49;;;;;;;4.43;2.13;;;;;;;13.06;46.97;103074.00;6070760;23;20029;-81
2023/05/03 06:30:19;;;;;;;9.27;2.20;;;;;;;12.59;47.61;103063.06;6071839;23;20529;-81
2023/05/03 06:32:48;;;;;;;7.85;2.53;;;;;;;12.34;48.99;103061.41;6071471;23;20118;-80
2023/05/03 06:35:18;;;;;;;2.63;1.80;;;;;;;12.39;49.97;103060.22;6070913;23;20019;-81
2023/05/03 06:37:44;;;;;;;4.95;1.92;;;;;;;12.36;49.49;103063.66;6072193;23;20094;-80
2023/05/03 06:40:11;;;;;;;9.05;2.58;;;;;;;12.24;49.94;103061.47;6072675;23;20030;-82
2023/05/03 06:42:37;;;;;;;5.35;2.38;;;;;;;12.19;50.43;103057.31;6074020;23;20028;-83
2023/05/03 06:45:08;;;;;;;3.55;2.17;;;;;;;12.16;49.91;103060.00;6071118;23;20082;-80
2023/05/03 06:47:38;;;;;;;2.30;1.75;;;;;;;12.16;50.30;103055.44;6071800;23;20023;-80
2023/05/03 06:50:05;;;;;;;3.47;2.00;;;;;;;12.17;50.69;103062.28;6072511;23;20019;-81
2023/05/03 06:52:32;;;;;;;5.57;2.20;;;;;;;12.11;50.65;103055.09;6047245;23;20083;-79
2023/05/03 06:54:58;;;;;;;3.85;2.50;;;;;;;12.13;51.09;103061.56;6071740;23;20020;-80
2023/05/03 06:57:25;;;;;;;3.35;2.40;;;;;;;12.09;50.22;103055.47;6072650;23;20019;-78
2023/05/03 06:59:54;;;;;;;5.75;2.33;;;;;;;11.96;49.99;103059.81;6072110;23;20046;-78
2023/05/03 07:02:21;;;;;;;3.85;2.10;;;;;;;11.91;50.38;103049.53;6097268;23;20027;-78
2023/05/03 07:04:48;;;;;;;3.35;2.38;;;;;;;11.97;50.62;103053.31;6075970;23;20015;-79
2023/05/03 07:07:14;;;;;;;6.07;2.03;;;;;;;12.07;50.80;103051.69;6075172;23;20025;-79
2023/05/03 07:09:41;;;;;;;3.25;1.52;;;;;;;12.11;51.21;103052.44;6100791;23;20019;-80
2023/05/03 07:12:10;;;;;;;2.60;1.55;;;;;;;11.98;50.08;103047.59;6100961;23;20057;-80
2023/05/03 07:14:37;;;;;;;4.82;1.45;;;;;;;12.08;49.92;103045.97;6101234;23;20035;-80
2023/05/03 07:17:04;;;;;;;2.00;1.75;;;;;;;12.06;49.69;103042.91;6100916;23;20259;-81
2023/05/03 07:19:30;;;;;;;5.03;1.45;;;;;;;12.09;49.48;103038.72;6101382;23;20050;-80
2023/05/03 07:21:57;;;;;;;3.80;1.75;;;;;;;12.14;49.42;103040.97;6100049;23;20505;-80
2023/05/03 07:24:24;;;;;;;2.13;1.60;;;;;;;12.24;50.26;103045.47;6100600;23;20021;-81
2023/05/03 07:26:52;;;;;;;4.82;1.70;;;;;;;12.34;49.36;103050.72;6075513;23;20018;-81
2023/05/03 07:29:19;;;;;;;4.45;1.90;;;;;;;12.36;48.27;103031.63;6100591;23;20079;-81
2023/05/03 07:31:46;;;;;;;2.80;2.00;;;;;;;12.35;49.31;103022.09;6075374;23;20083;-80
2023/05/03 07:34:13;;;;;;;6.53;2.05;;;;;;;12.61;49.95;103018.75;6075678;23;20019;-80
2023/05/03 07:36:39;;;;;;;8.55;2.28;;;;;;;12.77;48.47;103028.91;6101042;23;20019;-80
2023/05/03 07:39:06;;;;;;;5.50;2.30;;;;;;;12.86;48.94;103010.44;6099855;23;20504;-79
2023/05/03 07:41:33;;;;;;;3.42;1.92;;;;;;;12.99;48.94;103010.69;6100811;23;20023;-79
2023/05/03 07:43:59;;;;;;;2.85;1.90;;;;;;;12.99;48.12;103011.44;6100779;23;20414;-78
2023/05/03 07:46:26;;;;;;;3.90;1.95;;;;;;;13.16;48.14;103015.09;6075597;23;20022;-79
2023/05/03 07:48:52;;;;;;;2.97;1.85;;;;;;;13.09;48.78;103007.13;6100937;23;20021;-79
2023/05/03 07:51:19;;;;;;;4.90;2.17;;;;;;;13.09;48.60;103006.38;6100300;23;20078;-78
2023/05/03 07:53:46;;;;;;;2.15;1.67;;;;;;;13.29;48.20;103015.28;6100209;23;20022;-77
2023/05/03 07:56:12;;;;;;;4.60;2.20;;;;;;;13.40;48.27;102999.09;6100801;23;20037;-77
2023/05/03 07:58:39;;;;;;;4.10;1.98;;;;;;;13.36;47.39;103001.81;6100861;23;20468;-78
2023/05/03 08:01:09;;;;;;;5.00;2.50;;;;;;;13.24;47.59;102995.09;6069399;23;20032;-78
2023/05/03 08:03:35;;;;;;;7.85;2.13;;;;;;;13.47;47.73;102999.00;6071983;23;20098;-78
2023/05/03 08:06:02;;;;;;;6.28;2.08;;;;;;;13.51;47.06;102992.44;6071464;23;20450;-78
2023/05/03 08:08:30;;;;;;;4.30;1.98;;;;;;;13.52;46.39;103001.22;6071309;23;20023;-78
2023/05/03 08:10:57;;;;;;;2.10;1.67;;;;;;;13.41;46.69;102996.00;6071560;23;20430;-78
2023/05/03 08:13:23;;;;;;;2.92;1.80;;;;;;;13.58;46.56;102983.53;6046424;23;20019;-79
2023/05/03 08:15:50;;;;;;;3.60;1.83;;;;;;;13.77;45.26;102993.56;6070102;23;20020;-78
2023/05/03 08:18:17;;;;;;;9.25;1.95;;;;;;;13.60;45.06;102998.00;6071863;23;20051;-79
2023/05/03 08:20:46;;;;;;;2.70;1.90;;;;;;;14.01;45.84;102996.97;6070333;23;20023;-78
2023/05/03 08:23:12;;;;;;;2.75;1.98;;;;;;;14.09;45.15;103002.97;6070804;23;20488;-79
2023/05/03 08:25:39;;;;;;;1.92;1.75;;;;;;;14.03;45.41;102983.94;6071835;23;20016;-79
2023/05/03 08:28:07;;;;;;;3.97;2.00;;;;;;;14.21;44.28;102979.03;6071462;23;20026;-79
2023/05/03 08:30:34;;;;;;;1.65;1.55;;;;;;;14.17;44.65;102975.66;6071653;23;20051;-79
2023/05/03 08:33:01;;;;;;;4.10;1.90;;;;;;;14.27;43.89;102963.25;6045710;23;20019;-78
2023/05/03 08:35:27;;;;;;;3.75;1.80;;;;;;;14.39;44.56;102964.56;6071815;23;20019;-79
2023/05/03 08:37:54;;;;;;;3.20;1.92;;;;;;;14.53;43.78;102964.28;6069423;23;20529;-79
2023/05/03 08:40:21;;;;;;;9.80;2.65;;;;;;;14.66;43.33;102973.22;6071831;23;20075;-79
2023/05/03 08:42:49;;;;;;;3.08;2.00;;;;;;;14.74;44.46;102966.56;6071663;23;20419;-79
2023/05/03 08:45:16;;;;;;;13.95;1.92;;;;;;;14.76;42.72;102971.50;6071535;23;20016;-85
2023/05/03 08:47:43;;;;;;;3.33;1.80;;;;;;;14.85;42.60;102985.84;6070505;23;20023;-83
2023/05/03 08:50:12;;;;;;;2.33;1.80;;;;;;;14.87;42.36;102985.44;6071750;23;20019;-80
2023/05/03 08:52:41;;;;;;;8.73;1.98;;;;;;;15.04;42.62;102986.25;6072994;23;20446;-82
2023/05/03 08:55:09;;;;;;;5.38;1.98;;;;;;;15.19;41.75;102987.44;6070515;23;20015;-80
2023/05/03 08:57:36;;;;;;;3.10;1.77;;;;;;;15.11;41.77;102992.22;6045921;23;20020;-78
2023/05/03 09:00:11;;;;;;;5.30;2.00;;;;;;;15.20;41.05;102992.38;6069829;23;20058;-81
2023/05/03 09:02:38;;;;;;;3.65;1.88;;;;;;;15.40;40.48;102986.19;6100101;23;20029;-79
2023/05/03 09:05:33;;;;;;;3.53;1.70;;;;;;;15.54;41.98;102996.63;6099563;23;20022;-79
2023/05/03 09:08:21;;;;;;;7.57;2.00;;;;;;;15.46;40.57;103003.31;6074530;23;20086;-78
2023/05/03 09:10:48;;;;;;;2.03;1.60;;;;;;;15.40;40.18;102995.00;6100630;23;20401;-78
2023/05/03 09:13:14;;;;;;;5.82;2.10;;;;;;;15.33;40.30;102995.91;6099886;23;20453;-79
2023/05/03 09:15:44;;;;;;;2.38;2.13;;;;;;;15.39;40.52;102990.81;6100418;23;20445;-83
2023/05/03 09:18:18;;;;;;;4.72;1.85;;;;;;;15.55;40.49;102998.13;6100039;23;20434;-81
2023/05/03 09:20:53;;;;;;;3.47;1.88;;;;;;;15.59;39.89;103002.28;6072200;23;20115;-81
2023/05/03 09:23:25;;;;;;;25.65;19.70;;;;;;;15.49;41.09;102999.81;6074963;23;20023;-81
2023/05/03 09:25:52;;;;;;;5.78;2.30;;;;;;;15.61;40.29;103002.56;6101875;23;20082;-82
2023/05/03 09:28:19;;;;;;;2.00;1.83;;;;;;;15.94;40.53;102997.97;6099978;23;20043;-86
2023/05/03 09:30:47;;;;;;;2.53;2.08;;;;;;;16.21;39.76;103002.25;6099376;23;20050;-83
2023/05/03 09:33:21;;;;;;;6.30;2.25;;;;;;;16.20;39.67;102990.75;6100470;23;20019;-85
2023/05/03 09:35:56;;;;;;;2.50;2.30;;;;;;;16.11;39.43;103004.03;6099869;23;20023;-84
2023/05/03 09:38:28;;;;;;;3.47;1.83;;;;;;;16.10;39.86;102999.84;6098606;23;20030;-84
2023/05/03 09:40:55;;;;;;;;;;;;;;;16.39;41.55;103009.88;6099578;23;20022;-84
2023/05/03 09:43:22;;;;;;;2.92;1.88;;;;;;;16.59;40.28;102997.75;6100008;23;19943;-85
2023/05/03 09:45:48;;;;;;;2.92;2.17;;;;;;;16.83;39.65;102997.50;6101901;23;20015;-85
2023/05/03 09:48:15;;;;;;;2.42;1.92;;;;;;;16.64;38.87;103009.97;6101413;23;20535;-85
2023/05/03 09:50:42;;;;;;;4.88;2.47;;;;;;;16.55;38.78;103012.47;6100839;23;20099;-82
2023/05/03 09:53:09;;;;;;;5.90;2.67;;;;;;;16.64;38.16;103007.28;6101375;23;20023;-84
2023/05/03 09:55:38;;;;;;;5.15;1.98;;;;;;;16.52;38.95;103013.34;6103809;23;20054;-86
2023/05/03 09:58:06;;;;;;;2.47;1.90;;;;;;;16.41;38.75;102997.50;6107047;23;20030;-81
2023/05/03 10:00:37;;;;;;;5.68;2.17;;;;;;;16.51;39.21;102998.38;6100750;23;20469;-81
2023/05/03 10:03:11;;;;;;;;;;;;;;;16.72;41.34;102995.13;6100739;23;20025;-88
2023/05/03 10:05:48;;;;;;;2.72;2.15;;;;;;;16.59;39.30;102997.75;6101744;23;19925;-79
2023/05/03 10:08:33;;;;;;;4.15;2.00;;;;;;;16.63;38.96;102979.59;6075610;23;20015;-80
2023/05/03 10:11:02;;;;;;;3.67;1.88;;;;;;;16.95;38.24;102970.63;6101174;23;20019;-80
2023/05/03 10:13:30;;;;;;;4.78;2.42;;;;;;;16.99;38.49;102979.34;6101795;23;20015;-84
2023/05/03 10:16:04;;;;;;;3.72;2.40;;;;;;;16.97;38.28;102976.31;6101589;23;20034;-82
2023/05/03 10:18:32;;;;;;;3.28;1.98;;;;;;;17.02;37.43;102985.06;6101017;23;20067;-83
2023/05/03 10:21:13;;;;;;;2.97;1.90;;;;;;;17.26;38.16;102976.22;6074939;23;20497;-81
2023/05/03 10:24:16;;;;;;;4.38;2.25;;;;;;;17.27;39.01;102975.03;6101648;23;20442;-81
2023/05/03 10:26:48;;;;;;;2.53;2.00;;;;;;;17.30;37.05;102970.72;6101549;23;20025;-80
2023/05/03 10:29:30;;;;;;;2.50;2.03;;;;;;;17.20;38.20;102967.16;6103940;23;20078;-86
2023/05/03 10:31:56;;;;;;;;;;;;;;;17.34;38.89;102961.34;6075451;23;20023;-81
2023/05/03 10:34:24;;;;;;;6.32;2.42;;;;;;;17.38;37.36;102960.47;6101828;23;19981;-81
2023/05/03 10:36:52;;;;;;;2.45;2.10;;;;;;;17.39;37.56;102959.28;6075959;23;20107;-88
2023/05/03 10:39:20;;;;;;;4.15;2.17;;;;;;;17.34;37.77;102953.28;6075488;23;20062;-82
2023/05/03 10:42:02;;;;;;;3.45;2.72;;;;;;;17.47;38.82;102958.63;6101525;23;20054;-80
2023/05/03 10:44:37;;;;;;;4.20;2.35;;;;;;;17.60;36.69;102961.28;6101488;23;20508;-80
2023/05/03 10:47:17;;;;;;;3.42;2.08;;;;;;;17.56;36.40;102964.13;6100271;23;20047;-80
2023/05/03 10:49:44;;;;;;;2.70;2.22;;;;;;;17.43;36.50;102968.78;6075424;23;20094;-79
2023/05/03 10:52:50;;;;;;;6.78;2.30;;;;;;;17.60;36.73;102962.03;6100999;23;20030;-84
2023/05/03 10:55:19;;;;;;;7.40;2.25;;;;;;;17.51;36.39;102961.97;6074421;23;20015;-85
2023/05/03 10:57:47;;;;;;;2.72;2.40;;;;;;;17.52;35.87;102963.47;6075625;23;20034;-85
2023/05/03 11:00:30;;;;;;;4.88;2.70;;;;;;;17.41;36.37;102971.13;6100751;23;20098;-84
2023/05/03 11:03:14;;;;;;;4.57;2.63;;;;;;;17.34;36.94;102958.66;6074626;23;20770;-82
2023/05/03 11:05:41;;;;;;;4.63;2.63;;;;;;;17.60;35.86;102951.25;6028467;23;20087;-83
2023/05/03 11:08:12;;;;;;;2.60;2.40;;;;;;;17.61;35.04;102947.38;6071905;23;20449;-83
2023/05/03 11:10:40;;;;;;;2.97;2.42;;;;;;;17.76;35.40;102939.63;6046798;23;20019;-83
2023/05/03 11:13:07;;;;;;;4.68;2.60;;;;;;;17.71;35.93;102934.78;6071891;23;20024;-83
2023/05/03 11:15:34;;;;;;;6.40;2.80;;;;;;;17.82;35.20;102937.13;6045916;23;20409;-84
2023/05/03 11:18:01;;;;;;;6.35;2.78;;;;;;;17.88;35.14;102917.28;6046201;23;20028;-84
2023/05/03 11:20:30;;;;;;;6.07;2.97;;;;;;;17.97;34.87;102920.03;6072548;23;20026;-84
2023/05/03 11:22:56;;;;;;;2.90;2.60;;;;;;;17.96;35.74;102921.25;6046598;23;20365;-83
2023/05/03 11:25:23;;;;;;;2.88;2.72;;;;;;;18.04;34.88;102919.03;6072805;23;20468;-83
2023/05/03 11:27:49;;;;;;;4.72;2.80;;;;;;;18.16;35.36;102910.13;6072255;23;20446;-83
2023/05/03 11:30:16;;;;;;;3.97;2.75;;;;;;;18.19;35.43;102901.16;6021952;23;20019;-83
2023/05/03 11:32:43;;;;;;;3.70;2.80;;;;;;;18.14;36.10;102917.16;6072151;23;20025;-84
2023/05/03 11:35:14;;;;;;;4.03;2.70;;;;;;;18.11;35.18;102909.94;6073849;23;20058;-93
2023/05/03 11:37:42;;;;;;;3.50;2.53;;;;;;;18.28;35.39;102911.25;6051475;23;20076;-83